To NAV CANADA Home Page Login to a new session Search on AWWS site Disclaimer Vers la page française équivalente Tips FAQ What's new on the site To the Forecasts and Observations / NOTAM section To "File a Flight Plan" website Publications and other links Update of the User's profile FIC Telephone Numbers My Weather Data Folder Route Weather Data Regional Weather Data Local Weather Data To the Forecasts and Observations / NOTAM section
Request Generated 04/24/2019 at 16:26:43 UTC . Weather information available at that time is displayed.

METAR/TAF

FORT RESOLUTION/NT    

METAR CYFR 241600Z 32013KT 15SM BKN009 02/00 A2974 RMK SC6 SLP083=
SPECI CYFR 241535Z 31009G15KT 15SM BKN009 01/00 A2973 RMK SC5 SLP081=
METAR CYFR 241500Z 31009KT 15SM FEW002 FEW027 01/M00 A2973 RMK SF1SC1 SF TR SLP079=
METAR CYFR 241400Z 30006KT 14SM FEW003 FEW020 00/M01 A2972 RMK SF1SC1 SF TR RA AFT22UTC 2.8/ SLP075=

CYFR - No TAF is issued for this station

Your time UTC time
Weather data provided by Environment Canada and NAV CANADA